createdAt,value
2018-04-23T00:01:02.240Z,16.80
2018-04-23T00:03:29.815Z,16.87
2018-04-23T00:05:57.396Z,16.93
2018-04-23T00:08:24.944Z,17.93
2018-04-23T00:10:52.515Z,17.13
2018-04-23T00:13:20.061Z,17.53
2018-04-23T00:15:47.611Z,17.00
2018-04-23T00:18:15.182Z,18.37
2018-04-23T00:20:43.524Z,17.20
2018-04-23T00:23:11.069Z,17.07
2018-04-23T00:25:38.751Z,17.97
2018-04-23T00:28:06.318Z,17.20
2018-04-23T00:30:33.871Z,16.30
2018-04-23T00:33:01.475Z,17.50
2018-04-23T00:35:29.048Z,16.57
2018-04-23T00:37:57.403Z,16.77
2018-04-23T00:40:25.010Z,15.83
2018-04-23T00:42:52.623Z,15.90
2018-04-23T00:45:20.192Z,16.13
2018-04-23T00:47:47.792Z,16.50
2018-04-23T00:50:16.109Z,15.87
2018-04-23T00:52:43.765Z,16.80
2018-04-23T00:55:11.313Z,16.87
2018-04-23T00:57:38.933Z,17.77
2018-04-23T01:00:06.431Z,17.33
2018-04-23T01:02:33.981Z,16.00
2018-04-23T01:05:01.564Z,16.53
2018-04-23T01:07:29.181Z,16.37
2018-04-23T01:09:56.762Z,17.57
2018-04-23T01:12:24.378Z,16.57
2018-04-23T01:14:51.995Z,16.87
2018-04-23T01:17:19.612Z,16.47
2018-04-23T01:19:47.247Z,16.07
2018-04-23T01:22:14.795Z,16.47
2018-04-23T01:24:42.373Z,16.77
2018-04-23T01:27:09.944Z,13.90
2018-04-23T01:29:37.605Z,15.07
2018-04-23T01:32:05.931Z,14.80
2018-04-23T01:34:33.490Z,15.40
2018-04-23T01:37:01.021Z,15.47
2018-04-23T01:39:29.407Z,15.73
2018-04-23T01:41:56.968Z,15.43
2018-04-23T01:44:25.366Z,15.57
2018-04-23T01:46:52.871Z,15.80
2018-04-23T01:49:20.503Z,15.80
2018-04-23T01:51:48.037Z,15.83
2018-04-23T01:54:16.424Z,14.93
2018-04-23T01:56:43.956Z,15.07
2018-04-23T01:59:11.568Z,14.37
2018-04-23T02:01:39.122Z,13.90
2018-04-23T02:04:06.645Z,15.73
2018-04-23T02:06:34.197Z,15.33
2018-04-23T02:09:01.747Z,15.43
2018-04-23T02:11:29.376Z,15.33
2018-04-23T02:13:57.048Z,15.60
2018-04-23T02:16:24.661Z,15.63
2018-04-23T02:18:52.983Z,15.70
2018-04-23T02:21:20.613Z,15.50
2018-04-23T02:23:48.265Z,14.57
2018-04-23T02:26:16.649Z,14.60
2018-04-23T02:28:44.188Z,15.23
2018-04-23T02:31:12.588Z,15.63
2018-04-23T02:33:40.190Z,14.67
2018-04-23T02:36:07.804Z,14.93
2018-04-23T02:38:35.389Z,15.87
2018-04-23T02:41:03.115Z,15.37
2018-04-23T02:43:31.441Z,15.27
2018-04-23T02:45:58.948Z,15.80
2018-04-23T02:48:26.587Z,15.70
2018-04-23T02:50:54.188Z,16.63
2018-04-23T02:53:22.598Z,15.80
2018-04-23T02:55:50.160Z,15.17
2018-04-23T02:58:17.797Z,15.13
2018-04-23T03:00:45.391Z,16.20
2018-04-23T03:03:13.024Z,16.27
2018-04-23T03:05:40.600Z,16.80
2018-04-23T03:08:08.238Z,16.43
2018-04-23T03:10:35.813Z,17.13
2018-04-23T03:13:03.447Z,16.07
2018-04-23T03:15:31.033Z,17.13
2018-04-23T03:17:58.589Z,17.13
2018-04-23T03:20:26.188Z,17.37
2018-04-23T03:22:53.731Z,16.60
2018-04-23T03:25:21.357Z,15.83
2018-04-23T03:27:48.955Z,16.13
2018-04-23T03:30:16.520Z,17.40
2018-04-23T03:32:44.098Z,15.53
2018-04-23T03:35:11.734Z,17.00
2018-04-23T03:37:39.326Z,16.97
2018-04-23T03:40:06.956Z,16.87
2018-04-23T03:42:34.577Z,16.03
2018-04-23T03:45:02.952Z,16.53
2018-04-23T03:47:31.309Z,16.90
2018-04-23T03:49:58.920Z,15.40
2018-04-23T03:52:26.490Z,16.13
2018-04-23T03:54:54.102Z,16.77
2018-04-23T03:57:21.651Z,16.83
2018-04-23T03:59:49.159Z,17.13
2018-04-23T04:02:17.491Z,16.20
2018-04-23T04:04:45.052Z,17.50
2018-04-23T04:07:13.239Z,17.30
2018-04-23T04:09:40.796Z,16.57
2018-04-23T04:12:21.700Z,17.43
2018-04-23T04:15:01.069Z,15.83
2018-04-23T04:17:37.332Z,16.77
2018-04-23T04:20:04.979Z,16.37
2018-04-23T04:22:32.619Z,16.67
2018-04-23T04:25:00.171Z,15.70
2018-04-23T04:27:27.765Z,15.50
2018-04-23T04:29:55.356Z,16.67
2018-04-23T04:32:23.889Z,16.90
2018-04-23T04:34:51.487Z,15.37
2018-04-23T04:37:19.119Z,15.27
2018-04-23T04:39:46.699Z,17.07
2018-04-23T04:42:14.326Z,17.70
2018-04-23T04:44:41.947Z,16.57
2018-04-23T04:47:09.629Z,15.23
2018-04-23T04:49:37.214Z,14.57
2018-04-23T04:52:04.888Z,13.53
2018-04-23T04:54:32.434Z,14.47
2018-04-23T04:57:00.755Z,14.90
2018-04-23T04:59:28.339Z,12.57
2018-04-23T05:01:56.768Z,12.93
2018-04-23T05:04:24.327Z,12.20
2018-04-23T05:06:52.032Z,13.07
2018-04-23T05:09:20.439Z,12.13
2018-04-23T05:11:47.997Z,13.37
2018-04-23T05:14:15.633Z,13.07
2018-04-23T05:16:43.259Z,14.30
2018-04-23T05:19:10.935Z,13.20
2018-04-23T05:21:38.487Z,12.37
2018-04-23T05:24:06.079Z,14.77
2018-04-23T05:26:33.632Z,11.63
2018-04-23T05:29:01.261Z,11.77
2018-04-23T05:31:28.917Z,12.53
2018-04-23T05:33:56.625Z,12.03
2018-04-23T05:36:24.201Z,12.57
2018-04-23T05:38:52.581Z,12.17
2018-04-23T05:41:20.162Z,11.23
2018-04-23T05:43:47.755Z,11.67
2018-04-23T05:46:15.298Z,11.90
2018-04-23T05:48:42.883Z,12.10
2018-04-23T05:51:10.535Z,11.73
2018-04-23T05:53:38.043Z,11.77
2018-04-23T05:56:06.435Z,12.83
2018-04-23T05:58:33.993Z,11.70
2018-04-23T06:01:01.595Z,12.43
2018-04-23T06:03:29.898Z,12.80
2018-04-23T06:05:57.584Z,11.47
2018-04-23T06:08:25.265Z,11.43
2018-04-23T06:10:52.868Z,11.37
2018-04-23T06:13:20.465Z,11.50
2018-04-23T06:15:48.122Z,11.40
2018-04-23T06:18:16.535Z,11.43
2018-04-23T06:20:44.196Z,12.63
2018-04-23T06:23:11.827Z,11.47
2018-04-23T06:25:40.303Z,12.20
2018-04-23T06:28:07.932Z,14.20
2018-04-23T06:30:35.647Z,17.33
2018-04-23T06:33:03.358Z,17.80
2018-04-23T06:35:30.897Z,18.50
2018-04-23T06:37:58.584Z,19.87
2018-04-23T06:40:26.275Z,19.77
2018-04-23T06:42:54.674Z,18.67
2018-04-23T06:45:22.235Z,19.17
2018-04-23T06:47:49.894Z,17.83
2018-04-23T06:50:17.452Z,18.73
2018-04-23T06:52:45.037Z,16.40
2018-04-23T06:55:12.739Z,17.00
2018-04-23T06:57:40.384Z,17.47
2018-04-23T07:00:07.929Z,18.00
2018-04-23T07:02:35.616Z,17.07
2018-04-23T07:05:04.047Z,17.40
2018-04-23T07:07:31.723Z,17.93
2018-04-23T07:09:59.331Z,18.27
2018-04-23T07:12:27.693Z,18.50
2018-04-23T07:14:55.402Z,19.30
2018-04-23T07:17:22.969Z,18.93
2018-04-23T07:19:50.612Z,18.87
2018-04-23T07:22:18.163Z,21.00
2018-04-23T07:24:45.768Z,19.03
2018-04-23T07:27:13.340Z,17.93
2018-04-23T07:29:40.909Z,17.50
2018-04-23T07:32:08.520Z,16.37
2018-04-23T07:34:36.136Z,16.73
2018-04-23T07:37:03.696Z,16.13
2018-04-23T07:39:31.319Z,16.80
2018-04-23T07:41:58.910Z,15.43
2018-04-23T07:44:26.615Z,16.43
2018-04-23T07:46:54.332Z,15.87
2018-04-23T07:49:21.939Z,16.57
2018-04-23T07:51:49.567Z,15.87
2018-04-23T07:54:17.287Z,14.93
2018-04-23T07:56:44.911Z,13.73
2018-04-23T07:59:12.489Z,13.37
2018-04-23T08:01:40.944Z,12.47
2018-04-23T08:04:08.628Z,12.60
2018-04-23T08:06:37.768Z,12.70
2018-04-23T08:09:07.400Z,11.50
2018-04-23T08:11:35.107Z,11.30
2018-04-23T08:14:02.852Z,10.43
2018-04-23T08:16:30.457Z,9.93
2018-04-23T08:18:58.229Z,10.20
2018-04-23T08:21:26.326Z,9.50
2018-04-23T08:23:54.062Z,9.27
2018-04-23T08:26:21.821Z,9.13
2018-04-23T08:28:49.605Z,8.53
2018-04-23T08:31:17.319Z,7.93
2018-04-23T08:33:45.068Z,8.50
2018-04-23T08:36:12.873Z,8.60
2018-04-23T08:38:40.520Z,9.10
2018-04-23T08:41:08.183Z,8.37
2018-04-23T08:43:35.874Z,8.40
2018-04-23T08:46:03.506Z,8.77
2018-04-23T08:48:31.171Z,8.27
2018-04-23T08:50:58.914Z,7.30
2018-04-23T08:53:26.658Z,6.90
2018-04-23T08:55:54.431Z,7.67
2018-04-23T08:58:22.167Z,7.73
2018-04-23T09:00:49.884Z,7.63
2018-04-23T09:03:17.632Z,7.57
2018-04-23T09:05:45.309Z,8.00
2018-04-23T09:08:13.673Z,8.00
2018-04-23T09:10:41.414Z,7.63
2018-04-23T09:13:09.258Z,7.40
2018-04-23T09:15:37.012Z,7.53
2018-04-23T09:18:04.665Z,6.60
2018-04-23T09:20:32.331Z,6.90
2018-04-23T09:23:00.069Z,6.83
2018-04-23T09:25:28.595Z,6.17
2018-04-23T09:27:56.308Z,6.23
2018-04-23T09:30:24.923Z,6.37
2018-04-23T09:32:52.488Z,6.20
2018-04-23T09:35:20.161Z,5.90
2018-04-23T09:37:47.845Z,5.70
2018-04-23T09:40:15.520Z,5.77
2018-04-23T09:42:43.280Z,6.13
2018-04-23T09:45:10.968Z,5.73
2018-04-23T09:47:38.744Z,5.60
2018-04-23T09:50:06.555Z,5.43
2018-04-23T09:52:35.226Z,5.50
2018-04-23T09:55:03.015Z,5.03
2018-04-23T09:57:30.689Z,4.87
2018-04-23T09:59:59.035Z,5.10
2018-04-23T10:02:26.717Z,5.15
2018-04-23T10:04:54.431Z,5.00
2018-04-23T10:07:22.070Z,5.00
2018-04-23T10:09:49.684Z,5.15
2018-04-23T10:12:17.257Z,5.25
2018-04-23T10:14:44.896Z,4.93
2018-04-23T10:17:13.242Z,4.90
2018-04-23T10:19:41.767Z,5.30
2018-04-23T10:22:09.464Z,4.70
2018-04-23T10:24:37.227Z,4.53
2018-04-23T10:27:05.101Z,4.25
2018-04-23T10:29:32.895Z,4.07
2018-04-23T10:32:00.623Z,3.87
2018-04-23T10:34:28.335Z,4.12
2018-04-23T10:36:56.053Z,3.65
2018-04-23T10:39:23.740Z,3.83
2018-04-23T10:41:51.365Z,3.90
2018-04-23T10:44:19.030Z,3.85
2018-04-23T10:46:46.735Z,3.62
2018-04-23T10:49:14.458Z,3.35
2018-04-23T10:51:42.288Z,3.50
2018-04-23T10:54:09.979Z,3.45
2018-04-23T10:56:37.637Z,3.45
2018-04-23T10:59:05.279Z,3.80
2018-04-23T11:01:33.037Z,3.47
2018-04-23T11:04:00.775Z,3.90
2018-04-23T11:06:29.205Z,3.47
2018-04-23T11:08:56.943Z,3.33
2018-04-23T11:11:24.563Z,3.42
2018-04-23T11:13:52.231Z,3.25
2018-04-23T11:16:20.055Z,3.45
2018-04-23T11:18:47.735Z,3.33
2018-04-23T11:21:15.331Z,3.80
2018-04-23T11:23:42.928Z,3.35
2018-04-23T11:26:10.670Z,4.00
2018-04-23T11:28:38.481Z,3.87
2018-04-23T11:31:06.095Z,4.25
2018-04-23T11:33:33.686Z,4.03
2018-04-23T11:36:01.391Z,3.85
2018-04-23T11:38:29.004Z,4.12
2018-04-23T11:40:57.428Z,3.97
2018-04-23T11:43:25.143Z,4.20
2018-04-23T11:45:52.815Z,3.50
2018-04-23T11:48:20.509Z,3.80
2018-04-23T11:50:49.041Z,3.85
2018-04-23T11:53:16.740Z,3.65
2018-04-23T11:55:44.508Z,3.17
2018-04-23T11:58:13.035Z,3.70
2018-04-23T12:00:42.197Z,3.00
2018-04-23T12:03:10.035Z,3.53
2018-04-23T12:05:37.739Z,3.40
2018-04-23T12:08:05.357Z,3.78
2018-04-23T12:10:33.065Z,3.85
2018-04-23T12:13:01.356Z,3.58
2018-04-23T12:15:29.040Z,3.70
2018-04-23T12:17:56.739Z,4.03
2018-04-23T12:20:24.304Z,3.17
2018-04-23T12:22:51.823Z,3.70
2018-04-23T12:25:19.465Z,3.70
2018-04-23T12:27:46.983Z,3.20
2018-04-23T12:30:14.561Z,3.00
2018-04-23T12:32:42.128Z,3.47
2018-04-23T12:35:09.707Z,3.60
2018-04-23T12:37:37.250Z,3.37
2018-04-23T12:40:04.823Z,3.47
2018-04-23T12:42:32.341Z,2.85
2018-04-23T12:44:59.907Z,2.87
2018-04-23T12:47:27.420Z,3.42
2018-04-23T12:49:54.993Z,2.87
2018-04-23T12:52:22.597Z,3.40
2018-04-23T12:54:50.196Z,3.00
2018-04-23T12:57:17.749Z,3.12
2018-04-23T12:59:45.337Z,3.12
2018-04-23T13:02:12.891Z,3.22
2018-04-23T13:04:40.467Z,2.65
2018-04-23T13:07:08.007Z,3.40
2018-04-23T13:09:35.527Z,3.00
2018-04-23T13:12:03.133Z,3.33
2018-04-23T13:14:30.735Z,3.37
2018-04-23T13:16:58.379Z,3.05
2018-04-23T13:19:25.925Z,2.92
2018-04-23T13:21:53.533Z,2.87
2018-04-23T13:24:21.099Z,3.00
2018-04-23T13:26:49.418Z,2.55
2018-04-23T13:29:16.933Z,3.05
2018-04-23T13:31:45.307Z,2.87
2018-04-23T13:34:12.897Z,2.85
2018-04-23T13:36:40.495Z,2.97
2018-04-23T13:39:08.031Z,3.20
2018-04-23T13:41:35.573Z,2.55
2018-04-23T13:44:03.196Z,2.67
2018-04-23T13:46:30.709Z,3.08
2018-04-23T13:48:58.275Z,2.72
2018-04-23T13:51:25.773Z,3.05
2018-04-23T13:53:53.341Z,2.87
2018-04-23T13:56:20.855Z,3.47
2018-04-23T13:58:48.415Z,3.00
2018-04-23T14:01:15.963Z,2.72
2018-04-23T14:03:43.503Z,3.33
2018-04-23T14:06:11.085Z,3.40
2018-04-23T14:08:38.605Z,2.95
2018-04-23T14:11:06.218Z,3.10
2018-04-23T14:13:33.738Z,3.12
2018-04-23T14:16:01.285Z,3.25
2018-04-23T14:18:29.586Z,3.10
2018-04-23T14:20:57.174Z,2.80
2018-04-23T14:23:24.693Z,2.95
2018-04-23T14:25:53.035Z,2.75
2018-04-23T14:28:20.583Z,2.92
2018-04-23T14:30:48.174Z,2.97
2018-04-23T14:33:15.711Z,2.62
2018-04-23T14:35:43.262Z,2.95
2018-04-23T14:38:10.806Z,2.90
2018-04-23T14:40:39.076Z,2.92
2018-04-23T14:43:06.631Z,2.85
2018-04-23T14:45:34.241Z,3.45
2018-04-23T14:48:01.833Z,3.00
2018-04-23T14:50:29.397Z,2.90
2018-04-23T14:52:56.982Z,2.60
2018-04-23T14:55:24.505Z,2.67
2018-04-23T14:57:52.859Z,2.70
2018-04-23T15:00:20.423Z,2.80
2018-04-23T15:02:48.076Z,2.50
2018-04-23T15:05:16.421Z,2.77
2018-04-23T15:07:44.066Z,3.10
2018-04-23T15:10:11.633Z,2.83
2018-04-23T15:12:39.205Z,3.27
2018-04-23T15:15:06.707Z,3.30
2018-04-23T15:17:34.277Z,3.40
2018-04-23T15:20:02.569Z,3.33
2018-04-23T15:22:30.864Z,3.30
2018-04-23T15:24:58.420Z,3.30
2018-04-23T15:27:25.944Z,3.13
2018-04-23T15:29:54.297Z,3.37
2018-04-23T15:32:21.799Z,4.00
2018-04-23T15:34:49.378Z,4.00
2018-04-23T15:37:16.878Z,3.70
2018-04-23T15:39:44.425Z,4.30
2018-04-23T15:42:11.993Z,4.13
2018-04-23T15:44:39.560Z,4.10
2018-04-23T15:47:07.108Z,4.20
2018-04-23T15:49:34.673Z,4.27
2018-04-23T15:52:02.230Z,4.40
2018-04-23T15:54:29.868Z,4.03
2018-04-23T15:56:57.373Z,3.80
2018-04-23T15:59:25.708Z,4.30
2018-04-23T16:01:53.245Z,4.60
2018-04-23T16:04:20.771Z,4.27
2018-04-23T16:06:48.345Z,4.60
2018-04-23T16:09:15.896Z,4.23
2018-04-23T16:11:43.496Z,4.50
2018-04-23T16:14:11.068Z,4.77
2018-04-23T16:16:38.622Z,3.73
2018-04-23T16:19:06.141Z,4.20
2018-04-23T16:21:34.471Z,3.93
2018-04-23T16:24:01.988Z,3.80
2018-04-23T16:26:30.303Z,3.70
2018-04-23T16:28:57.804Z,3.50
2018-04-23T16:31:26.117Z,3.73
2018-04-23T16:33:53.633Z,3.63
2018-04-23T16:36:21.215Z,3.77
2018-04-23T16:38:48.748Z,3.43
2018-04-23T16:41:16.282Z,3.70
2018-04-23T16:43:43.818Z,3.50
2018-04-23T16:46:11.348Z,3.60
2018-04-23T16:48:39.655Z,3.90
2018-04-23T16:51:07.191Z,3.20
2018-04-23T16:53:34.730Z,3.60
2018-04-23T16:56:03.015Z,3.63
2018-04-23T16:58:31.357Z,3.90
2018-04-23T17:00:58.867Z,4.07
2018-04-23T17:03:27.183Z,3.67
2018-04-23T17:05:54.704Z,3.33
2018-04-23T17:08:22.280Z,4.53
2018-04-23T17:10:50.608Z,3.80
2018-04-23T17:13:18.224Z,4.30
2018-04-23T17:15:45.783Z,3.87
2018-04-23T17:18:13.336Z,4.30
2018-04-23T17:20:40.851Z,4.33
2018-04-23T17:23:08.363Z,3.97
2018-04-23T17:25:35.910Z,4.00
2018-04-23T17:28:03.429Z,4.33
2018-04-23T17:30:30.987Z,4.43
2018-04-23T17:32:58.519Z,3.90
2018-04-23T17:35:26.056Z,4.23
2018-04-23T17:37:53.584Z,3.83
2018-04-23T17:40:21.123Z,3.97
2018-04-23T17:42:48.676Z,3.77
2018-04-23T17:45:16.226Z,4.17
2018-04-23T17:47:43.758Z,4.07
2018-04-23T17:50:11.315Z,4.27
2018-04-23T17:52:38.829Z,3.70
2018-04-23T17:55:06.419Z,4.10
2018-04-23T17:57:33.939Z,4.23
2018-04-23T18:00:01.515Z,3.80
2018-04-23T18:02:29.809Z,4.30
2018-04-23T18:05:00.328Z,4.23
2018-04-23T18:07:28.647Z,4.30
2018-04-23T18:09:56.190Z,4.10
2018-04-23T18:12:23.697Z,4.23
2018-04-23T18:14:51.297Z,4.03
2018-04-23T18:17:18.816Z,4.80
2018-04-23T18:19:46.385Z,4.27
2018-04-23T18:22:13.921Z,4.00
2018-04-23T18:24:42.003Z,4.03
2018-04-23T18:27:09.585Z,4.03
2018-04-23T18:29:37.137Z,3.83
2018-04-23T18:32:04.707Z,3.83
2018-04-23T18:34:32.285Z,4.00
2018-04-23T18:37:00.617Z,4.27
2018-04-23T18:39:28.158Z,4.00
2018-04-23T18:41:55.770Z,4.00
2018-04-23T18:44:23.303Z,4.00
2018-04-23T18:46:50.937Z,3.80
2018-04-23T18:49:18.487Z,3.73
2018-04-23T18:51:45.994Z,3.60
2018-04-23T18:54:13.568Z,3.87
2018-04-23T18:56:41.873Z,3.73
2018-04-23T18:59:09.427Z,3.60
2018-04-23T19:01:36.943Z,3.83
2018-04-23T19:04:04.511Z,3.23
2018-04-23T19:06:32.045Z,3.73
2018-04-23T19:08:59.612Z,3.93
2018-04-23T19:11:27.147Z,3.67
2018-04-23T19:13:54.698Z,4.10
2018-04-23T19:16:22.229Z,4.10
2018-04-23T19:18:50.608Z,4.47
2018-04-23T19:21:18.926Z,4.40
2018-04-23T19:23:46.437Z,4.33
2018-04-23T19:26:14.011Z,4.87
2018-04-23T19:28:41.544Z,4.20
2018-04-23T19:31:09.098Z,3.73
2018-04-23T19:33:36.661Z,4.67
2018-04-23T19:36:04.365Z,4.63
2018-04-23T19:38:31.890Z,4.57
2018-04-23T19:41:00.201Z,4.30
2018-04-23T19:43:27.746Z,4.07
2018-04-23T19:45:56.130Z,3.80
2018-04-23T19:48:23.582Z,3.87
2018-04-23T19:50:51.869Z,4.03
2018-04-23T19:53:19.402Z,4.10
2018-04-23T19:55:46.934Z,4.60
2018-04-23T19:58:14.496Z,4.60
2018-04-23T20:00:42.022Z,4.80
2018-04-23T20:03:09.552Z,4.33
2018-04-23T20:05:37.850Z,4.50
2018-04-23T20:08:05.387Z,4.27
2018-04-23T20:10:33.670Z,4.17
2018-04-23T20:13:01.208Z,4.97
2018-04-23T20:15:28.729Z,4.80
2018-04-23T20:17:56.294Z,4.87
2018-04-23T20:20:24.588Z,4.43
2018-04-23T20:22:52.095Z,5.13
2018-04-23T20:25:19.626Z,4.37
2018-04-23T20:27:47.130Z,3.93
2018-04-23T20:30:14.707Z,4.57
2018-04-23T20:32:42.225Z,4.37
2018-04-23T20:35:09.789Z,4.63
2018-04-23T20:37:37.317Z,4.37
2018-04-23T20:40:06.178Z,4.53
2018-04-23T20:42:33.692Z,4.20
2018-04-23T20:45:01.248Z,3.90
2018-04-23T20:47:28.773Z,3.87
2018-04-23T20:49:56.360Z,4.20
2018-04-23T20:52:24.637Z,4.30
2018-04-23T20:54:52.915Z,4.50
2018-04-23T20:57:21.248Z,4.37
2018-04-23T20:59:48.740Z,4.27
2018-04-23T21:02:16.300Z,4.70
2018-04-23T21:04:44.591Z,4.03
2018-04-23T21:07:12.864Z,3.87
2018-04-23T21:09:41.144Z,3.93
2018-04-23T21:12:08.718Z,4.40
2018-04-23T21:14:36.238Z,4.20
2018-04-23T21:17:04.162Z,4.30
2018-04-23T21:19:31.704Z,4.23
2018-04-23T21:21:59.254Z,4.77
2018-04-23T21:24:26.774Z,4.30
2018-04-23T21:26:54.330Z,4.67
2018-04-23T21:29:21.858Z,3.97
2018-04-23T21:31:49.414Z,4.93
2018-04-23T21:34:16.973Z,5.30
2018-04-23T21:36:44.492Z,4.80
2018-04-23T21:39:12.815Z,4.67
2018-04-23T21:41:40.360Z,4.30
2018-04-23T21:44:07.912Z,3.87
2018-04-23T21:46:35.434Z,4.30
2018-04-23T21:49:04.692Z,4.67
2018-04-23T21:51:32.232Z,4.83
2018-04-23T21:53:59.780Z,4.07
2018-04-23T21:56:27.291Z,4.53
2018-04-23T21:58:54.884Z,3.80
2018-04-23T22:01:22.379Z,4.57
2018-04-23T22:03:49.953Z,4.00
2018-04-23T22:06:17.472Z,4.13
2018-04-23T22:08:45.040Z,4.17
2018-04-23T22:11:13.313Z,3.67
2018-04-23T22:13:40.864Z,4.50
2018-04-23T22:16:08.397Z,3.77
2018-04-23T22:18:35.928Z,3.67
2018-04-23T22:21:03.495Z,4.07
2018-04-23T22:23:31.011Z,4.37
2018-04-23T22:25:58.563Z,3.70
2018-04-23T22:28:27.073Z,2.73
2018-04-23T22:30:54.611Z,3.00
2018-04-23T22:33:22.890Z,3.37
2018-04-23T22:35:51.207Z,3.20
2018-04-23T22:38:18.715Z,3.27
2018-04-23T22:40:46.249Z,2.67
2018-04-23T22:43:13.873Z,3.60
2018-04-23T22:45:41.429Z,3.20
2018-04-23T22:48:09.113Z,3.00
2018-04-23T22:50:37.019Z,3.63
2018-04-23T22:53:04.625Z,4.27
2018-04-23T22:55:34.566Z,3.83
2018-04-23T22:58:03.752Z,4.07
2018-04-23T23:00:31.429Z,4.43
2018-04-23T23:02:59.074Z,3.90
2018-04-23T23:05:28.118Z,4.50
2018-04-23T23:07:58.307Z,4.37
2018-04-23T23:10:26.927Z,4.43
2018-04-23T23:12:55.556Z,4.70
2018-04-23T23:15:30.537Z,4.30
2018-04-23T23:17:58.917Z,4.27
2018-04-23T23:20:26.509Z,5.57
2018-04-23T23:22:54.143Z,5.37
2018-04-23T23:25:22.040Z,5.53
2018-04-23T23:27:50.816Z,5.30
2018-04-23T23:30:20.719Z,4.90
2018-04-23T23:32:48.569Z,4.70
2018-04-23T23:35:16.456Z,5.37
2018-04-23T23:37:44.308Z,4.97
2018-04-23T23:40:13.096Z,4.60
2018-04-23T23:42:41.590Z,4.27
2018-04-23T23:45:10.098Z,4.63
2018-04-23T23:47:37.802Z,4.97
2018-04-23T23:50:05.774Z,4.90
2018-04-23T23:52:34.452Z,4.43
2018-04-23T23:55:02.253Z,4.63
2018-04-23T23:57:30.078Z,4.10
2018-04-23T23:59:58.011Z,5.00
